Skip to main content.

Nearby METAR Reports

 

KJYR - York, Nebraska, USA
Distance from station: NW 27mi, 43km
Updated: Mon, 17-Dec-2018 9:30am CST
Clear
Clear
 Wind from S
Wind: S 7 mph , 11 km/h
Temperature: 36°F , 2°C
Wind Chill: 30°F , -1°C
Dew Point: 30°F , -1°C
Humidity: 81%
Barometer: 30.22 inHg , 1023.4 hPa
Clouds: Clear
Visibility: 10 miles , 16 km
2018/12/17 15:30 KJYR 171530Z AUTO 18006KT 10SM CLR 02/M01 A3022 RMK AO2
KLNK - Lincoln, Nebraska, USA
Distance from station: ENE 27mi, 44km
Updated: Mon, 17-Dec-2018 8:54am CST
Clear
Clear
 Wind from calm
Wind: Calm
Temperature: 27°F , -3°C
Dew Point: 25°F , -4°C
Humidity: 93%
Barometer: 30.28 inHg , 1025.4 hPa
Clouds: Clear
Visibility: 10 miles , 16 km
2018/12/17 14:54 KLNK 171454Z 00000KT 10SM CLR M03/M04 A3028 RMK AO2 SLP267 T10281044 55000
 
KBIE - Beatrice Municip, Nebraska, USA
Distance from station: SE 36mi, 58km
Updated: Mon, 17-Dec-2018 9:35am CST
Clear
Clear
 Wind from calm
Wind: Calm
Temperature: 37°F , 3°C
Dew Point: 30°F , -1°C
Humidity: 75%
Barometer: 30.28 inHg , 1025.4 hPa
Clouds: Clear
Visibility: 10 miles , 16 km
2018/12/17 15:35 KBIE 171535Z AUTO 00000KT 10SM CLR 03/M01 A3028 RMK AO2 T00251006
KHJH - Hebron Muni, Nebraska, USA
Distance from station: SSW 40mi, 64km
Updated: Mon, 17-Dec-2018 9:35am CST
Clear
Clear
 Wind from calm
Wind: Calm
Temperature: 36°F , 2°C
Dew Point: 32°F , 0°C
Humidity: 87%
Barometer: 30.27 inHg , 1025.1 hPa
Clouds: Clear
Visibility: 10 miles , 16 km
2018/12/17 15:35 KHJH 171535Z AUTO 00000KT 10SM CLR 02/00 A3027 RMK AO2 T00160000
 
KAUH - Aurora, Nebraska, USA
Distance from station: WNW 44mi, 70km
Updated: Mon, 17-Dec-2018 9:35am CST
Clear
Clear
 Wind from SSW
Wind: SSW 10 mph , 17 km/h
Temperature: 37°F , 3°C
Wind Chill: 30°F , -1°C
Dew Point: 30°F , -1°C
Humidity: 75%
Barometer: 30.20 inHg , 1022.7 hPa
Clouds: Clear
Visibility: 10 miles , 16 km
2018/12/17 15:35 KAUH 171535Z AUTO 21009KT 10SM CLR 03/M01 A3020 RMK AO2 T00261011
KAHQ - Wahoo, Nebraska, USA
Distance from station: NE 51mi, 82km
Updated: Mon, 17-Dec-2018 9:35am CST
Clear
Clear
 Wind from S
Wind: S 5 mph , 7 km/h
Temperature: 32°F , 0°C
Wind Chill: 27°F , -3°C
Dew Point: 32°F , 0°C
Humidity: 100%
Barometer: 30.26 inHg , 1024.7 hPa
Clouds: Clear
Visibility: 10 miles , 16 km
2018/12/17 15:35 KAHQ 171535Z AUTO 18004KT 10SM CLR 00/00 A3026 RMK AO2 T00011005
 
KOLU - Columbus Muni, Nebraska, USA
Distance from station: N 55mi, 88km
Updated: Mon, 17-Dec-2018 8:56am CST
Clear
Clear
 Wind from SE
Wind: SE 3 mph , 6 km/h
Temperature: 30°F , -1°C
Dew Point: 28°F , -2°C
Humidity: 93%
Barometer: 30.22 inHg , 1023.4 hPa
Clouds: Clear
Visibility: 10 miles , 16 km
2018/12/17 14:56 KOLU 171456Z AUTO 13003KT 10SM CLR M01/M02 A3022 RMK AO2 SLP255 T10111017 55004 FZRANO
KGRI - Grand Island, Nebraska, USA
Distance from station: WNW 61mi, 99km
Updated: Mon, 17-Dec-2018 8:53am CST
Clear
Clear
 Wind from S
Wind: S 6 mph , 9 km/h
Temperature: 36°F , 2°C
Wind Chill: 31°F , -1°C
Dew Point: 28°F , -2°C
Humidity: 75%
Barometer: 30.19 inHg , 1022.4 hPa
Clouds: Clear
Visibility: 10 miles , 16 km
2018/12/17 14:53 KGRI 171453Z 19005KT 10SM CLR 02/M02 A3019 RMK AO2 SLP245 T00171022 58004
 
KHSI - Hastings, Nebraska, USA
Distance from station: W 64mi, 103km
Updated: Mon, 17-Dec-2018 8:53am CST
Clear
Clear
 Wind from SSW
Wind: SSW 6 mph , 9 km/h
Temperature: 34°F , 1°C
Wind Chill: 29°F , -2°C
Dew Point: 27°F , -3°C
Humidity: 75%
Barometer: 30.21 inHg , 1023 hPa
Clouds: Clear
Visibility: 10 miles , 16 km
2018/12/17 14:53 KHSI 171453Z AUTO 20005KT 10SM CLR 01/M03 A3021 RMK AO2 SLP247 T00111033 58004
KFET - Fremont Muni Arp, Nebraska, USA
Distance from station: NNE 66mi, 106km
Updated: Mon, 17-Dec-2018 9:35am CST
Clear
Clear
 Wind from calm
Wind: Calm
Temperature: 37°F , 3°C
Dew Point: 32°F , 0°C
Humidity: 81%
Barometer: 30.26 inHg , 1024.7 hPa
Clouds: Clear
Visibility: 10 miles , 16 km
2018/12/17 15:35 KFET 171535Z AUTO 00000KT 10SM CLR 03/00 A3026 RMK AO2 T00290002
 
KMLE - Omaha/Millard, Nebraska, USA
Distance from station: NE 69mi, 110km
Updated: Mon, 17-Dec-2018 9:35am CST
Clear
Clear
 Wind from SE
Wind: SE 6 mph , 9 km/h
Temperature: 32°F , 0°C
Wind Chill: 26°F , -3°C
Dew Point: 28°F , -2°C
Humidity: 87%
Barometer: 30.28 inHg , 1025.4 hPa
Clouds: Clear
Visibility: 10 miles , 16 km
2018/12/17 15:35 KMLE 171535Z AUTO 14005KT 10SM CLR 00/M02 A3028 RMK AO2 T00001016
KPMV - Plattsmouth Muni, Nebraska, USA
Distance from station: ENE 71mi, 114km
Updated: Mon, 17-Dec-2018 9:35am CST
Clear
Clear
 Wind from SSE
Wind: SSE 3 mph , 6 km/h
Temperature: 34°F , 1°C
Dew Point: 30°F , -1°C
Humidity: 87%
Barometer: 30.28 inHg , 1025.4 hPa
Clouds: Clear
Visibility: 10 miles , 16 km
2018/12/17 15:35 KPMV 171535Z AUTO 16003KT 10SM CLR 01/M01 A3028 RMK AO2 T00061012
 
KAFK - Nebraska City, Nebraska, USA
Distance from station: E 72mi, 116km
Updated: Mon, 17-Dec-2018 9:35am CST
Clear
Clear
 Wind from S
Wind: S 6 mph , 9 km/h
Temperature: 36°F , 2°C
Wind Chill: 31°F , -1°C
Dew Point: 30°F , -1°C
Humidity: 81%
Barometer: 30.29 inHg , 1025.7 hPa
Clouds: Clear
Visibility: 10 miles , 16 km
2018/12/17 15:35 KAFK 171535Z AUTO 19005KT 10SM CLR 02/M01 A3029 RMK AO2 T00191015
KOFF - Offutt Afb/Belle, Nebraska, USA
Distance from station: ENE 75mi, 121km
Updated: Mon, 17-Dec-2018 8:56am CST
Clear
Clear
 Wind from calm
Wind: Calm
Temperature: 27°F , -3°C
Dew Point: 27°F , -3°C
Humidity: 100%
Barometer: 30.27 inHg , 1025.1 hPa
Clouds: Clear
Visibility: 10 miles , 16 km
2018/12/17 14:56 KOFF 171456Z AUTO 00000KT 10SM CLR M03/M03 A3027 RMK AO2 SLP269 T10301030 53002 $
 
KBTA - Blair Muni, Nebraska, USA
Distance from station: NE 78mi, 125km
Updated: Mon, 17-Dec-2018 9:35am CST
Clear
Clear
 Wind from SSE
Wind: SSE 5 mph , 7 km/h
Temperature: 34°F , 1°C
Wind Chill: 29°F , -2°C
Dew Point: 28°F , -2°C
Humidity: 81%
Barometer: 30.25 inHg , 1024.4 hPa
Clouds: Clear
Visibility: 10 miles , 16 km
2018/12/17 15:35 KBTA 171535Z AUTO 15004KT 10SM CLR 01/M02 A3025 RMK AO2 T00081016
KCNK - Concordia, Kansas, USA
Distance from station: SSW 80mi, 129km
Updated: Mon, 17-Dec-2018 8:55am CST
Clear
Clear
 Wind from SW
Wind: SW 8 mph , 13 km/h
Temperature: 36°F , 2°C
Wind Chill: 30°F , -1°C
Dew Point: 28°F , -2°C
Humidity: 75%
Barometer: 30.27 inHg , 1025.1 hPa
Clouds: Clear
Visibility: 10 miles , 16 km
2018/12/17 14:55 KCNK 171455Z AUTO 23007KT 10SM CLR 02/M02 A3027 RMK AO2 SLP259 T00221017 53003
 
KOMA - Omaha/Eppley, Nebraska, USA
Distance from station: NE 82mi, 133km
Updated: Mon, 17-Dec-2018 8:52am CST
Clear
Clear
 Wind from SSE
Wind: SSE 6 mph , 9 km/h
Temperature: 28°F , -2°C
Wind Chill: 21°F , -6°C
Dew Point: 25°F , -4°C
Humidity: 86%
Barometer: 30.28 inHg , 1025.4 hPa
Clouds: Clear
Visibility: 10 miles , 16 km
2018/12/17 14:52 KOMA 171452Z 15005KT 10SM CLR M02/M04 A3028 RMK AO2 SLP265 I3000 T10221039 53003
KBVN - Albion Muni, Nebraska, USA
Distance from station: NNW 86mi, 138km
Updated: Mon, 17-Dec-2018 9:35am CST
Clear
Clear
 Wind from S
Wind: S 7 mph , 11 km/h
Temperature: 36°F , 2°C
Wind Chill: 30°F , -1°C
Dew Point: 30°F , -1°C
Humidity: 81%
Barometer: 30.17 inHg , 1021.7 hPa
Clouds: Clear
Visibility: 10 miles , 16 km
2018/12/17 15:35 KBVN 171535Z AUTO 18006KT 10SM CLR 02/M01 A3017 RMK AO2 T00161010
 
KCBF - Council Bluffs, Iowa, USA
Distance from station: ENE 87mi, 139km
Updated: Mon, 17-Dec-2018 9:35am CST
Clear
Clear
 Wind from SSE
Wind: SSE 7 mph , 11 km/h
Temperature: 28°F , -2°C
Wind Chill: 21°F , -6°C
Dew Point: 28°F , -2°C
Humidity: 100%
Barometer: 30.27 inHg , 1025.1 hPa
Clouds: Clear
Visibility: 10 miles , 16 km
2018/12/17 15:35 KCBF 171535Z AUTO 15006KT 10SM CLR M02/M02 A3027 RMK AO2
KOFK - Norfolk, Nebraska, USA
Distance from station: N 92mi, 148km
Updated: Mon, 17-Dec-2018 8:56am CST
Clear
Clear
 Wind from S
Wind: S 15 mph , 24 km/h
Temperature: 37°F , 3°C
Wind Chill: 28°F , -2°C
Dew Point: 28°F , -2°C
Humidity: 70%
Barometer: 30.16 inHg , 1021.3 hPa
Clouds: Clear
Visibility: 10 miles , 16 km
2018/12/17 14:56 KOFK 171456Z AUTO 18013KT 10SM CLR 03/M02 A3016 RMK AO2 SLP228 T00281017 57012

Metar display script from Saratoga-Weather.org